createdAt,value
2022-08-24T00:00:48.624Z,93.50
2022-08-24T00:03:35.916Z,93.50
2022-08-24T00:06:23.614Z,93.50
2022-08-24T00:09:09.955Z,93.60
2022-08-24T00:11:56.209Z,93.90
2022-08-24T00:14:43.781Z,93.90
2022-08-24T00:17:30.097Z,94.30
2022-08-24T00:20:16.890Z,94.50
2022-08-24T00:23:03.545Z,94.40
2022-08-24T00:25:49.734Z,94.70
2022-08-24T00:28:37.252Z,94.50
2022-08-24T00:31:23.818Z,94.50
2022-08-24T00:34:10.518Z,94.90
2022-08-24T00:36:56.720Z,94.80
2022-08-24T00:39:42.642Z,94.50
2022-08-24T00:42:28.745Z,94.50
2022-08-24T00:45:16.350Z,94.50
2022-08-24T00:48:07.593Z,94.60
2022-08-24T00:50:56.742Z,95.30
2022-08-24T00:53:52.985Z,95.20
2022-08-24T00:56:45.553Z,95.20
2022-08-24T00:59:37.256Z,95.30
2022-08-24T01:02:31.781Z,95.60
2022-08-24T01:05:19.232Z,95.90
2022-08-24T01:08:08.988Z,96.20
2022-08-24T01:11:08.370Z,96.20
2022-08-24T01:13:58.008Z,96.20
2022-08-24T01:17:02.748Z,96.20
2022-08-24T01:19:52.605Z,96.20
2022-08-24T01:23:00.613Z,96.30
2022-08-24T01:25:46.953Z,96.50
2022-08-24T01:28:34.544Z,96.20
2022-08-24T01:31:25.163Z,96.40
2022-08-24T01:34:13.088Z,96.70
2022-08-24T01:37:00.321Z,96.60
2022-08-24T01:39:48.571Z,96.70
2022-08-24T01:42:36.043Z,96.60
2022-08-24T01:45:21.856Z,96.60
2022-08-24T01:48:07.837Z,97.00
2022-08-24T01:50:53.944Z,97.20
2022-08-24T01:53:42.519Z,97.40
2022-08-24T01:56:29.080Z,97.90
2022-08-24T01:59:17.172Z,98.00
2022-08-24T02:02:19.558Z,98.20
2022-08-24T02:05:06.004Z,98.10
2022-08-24T02:07:52.450Z,98.00
2022-08-24T02:10:40.983Z,98.00
2022-08-24T02:13:39.670Z,97.90
2022-08-24T02:16:27.143Z,98.10
2022-08-24T02:19:13.676Z,98.10
2022-08-24T02:22:00.810Z,98.30
2022-08-24T02:24:47.536Z,98.30
2022-08-24T02:27:34.269Z,98.10
2022-08-24T02:30:20.665Z,97.80
2022-08-24T02:33:08.263Z,97.90
2022-08-24T02:35:55.120Z,97.70
2022-08-24T02:38:41.419Z,98.00
2022-08-24T02:41:33.514Z,97.70
2022-08-24T02:44:19.793Z,98.10
2022-08-24T02:47:07.906Z,98.30
2022-08-24T02:49:54.408Z,98.50
2022-08-24T02:52:42.153Z,98.60
2022-08-24T02:55:28.317Z,98.60
2022-08-24T02:58:16.472Z,98.40
2022-08-24T03:01:04.278Z,98.60
2022-08-24T03:04:01.108Z,98.60
2022-08-24T03:06:47.431Z,98.90
2022-08-24T03:09:33.575Z,98.80
2022-08-24T03:12:19.824Z,98.90
2022-08-24T03:15:10.558Z,98.70
2022-08-24T03:17:56.994Z,98.80
2022-08-24T03:20:43.974Z,99.00
2022-08-24T03:23:31.993Z,98.90
2022-08-24T03:26:22.930Z,98.90
2022-08-24T03:29:09.600Z,98.90
2022-08-24T03:31:57.413Z,98.90
2022-08-24T03:34:46.352Z,99.00
2022-08-24T03:37:32.917Z,99.20
2022-08-24T03:40:22.982Z,99.00
2022-08-24T03:43:34.071Z,98.90
2022-08-24T03:46:28.666Z,98.80
2022-08-24T03:49:14.874Z,98.80
2022-08-24T03:52:01.629Z,97.90
2022-08-24T03:54:48.187Z,98.40
2022-08-24T03:57:34.981Z,98.40
2022-08-24T04:00:22.141Z,98.80
2022-08-24T04:03:16.241Z,98.90
2022-08-24T04:06:02.437Z,98.90
2022-08-24T04:08:52.262Z,99.10
2022-08-24T04:11:41.491Z,98.80
2022-08-24T04:14:28.085Z,98.80
2022-08-24T04:17:20.669Z,99.10
2022-08-24T04:20:08.940Z,99.20
2022-08-24T04:22:58.298Z,98.50
2022-08-24T04:25:47.141Z,98.70
2022-08-24T04:28:33.776Z,98.70
2022-08-24T04:31:20.892Z,98.70
2022-08-24T04:34:08.950Z,98.80
2022-08-24T04:36:56.948Z,98.80
2022-08-24T04:39:42.880Z,99.00
2022-08-24T04:42:40.862Z,99.00
2022-08-24T04:45:28.854Z,98.90
2022-08-24T04:48:16.094Z,98.90
2022-08-24T04:51:04.772Z,98.90
2022-08-24T04:53:52.077Z,99.30
2022-08-24T04:56:38.362Z,99.60
2022-08-24T04:59:24.806Z,99.60
2022-08-24T05:02:12.306Z,99.90
2022-08-24T05:04:59.318Z,99.60
2022-08-24T05:07:45.586Z,99.40
2022-08-24T05:10:33.935Z,99.40
2022-08-24T05:13:20.162Z,99.40
2022-08-24T05:16:13.826Z,99.60
2022-08-24T05:19:01.555Z,99.70
2022-08-24T05:21:48.387Z,99.70
2022-08-24T05:24:34.877Z,99.40
2022-08-24T05:27:21.444Z,99.40
2022-08-24T05:30:11.881Z,99.20
2022-08-24T05:32:57.973Z,99.50
2022-08-24T05:35:44.619Z,99.70
2022-08-24T05:38:33.351Z,99.60
2022-08-24T05:41:20.909Z,99.80
2022-08-24T05:44:15.919Z,99.80
2022-08-24T05:47:03.354Z,99.60
2022-08-24T05:49:52.992Z,99.60
2022-08-24T05:52:39.797Z,99.60
2022-08-24T05:55:25.779Z,99.50
2022-08-24T05:58:15.264Z,99.40
2022-08-24T06:01:14.526Z,99.00
2022-08-24T06:04:01.227Z,98.50
2022-08-24T06:06:48.564Z,98.30
2022-08-24T06:09:36.320Z,98.20
2022-08-24T06:12:22.846Z,98.00
2022-08-24T06:15:09.200Z,97.40
2022-08-24T06:17:55.062Z,97.50
2022-08-24T06:20:42.521Z,97.60
2022-08-24T06:23:28.816Z,97.50
2022-08-24T06:26:39.690Z,97.40
2022-08-24T06:29:25.774Z,96.90
2022-08-24T06:32:15.997Z,96.50
2022-08-24T06:35:02.865Z,96.40
2022-08-24T06:37:49.849Z,96.20
2022-08-24T06:40:36.161Z,96.20
2022-08-24T06:43:24.457Z,96.10
2022-08-24T06:46:12.914Z,96.00
2022-08-24T06:49:02.163Z,96.10
2022-08-24T06:51:50.790Z,95.70
2022-08-24T06:54:38.216Z,95.40
2022-08-24T06:57:25.325Z,94.80
2022-08-24T07:00:12.797Z,94.00
2022-08-24T07:03:00.703Z,93.60
2022-08-24T07:05:52.108Z,93.50
2022-08-24T07:08:53.592Z,93.70
2022-08-24T07:11:39.959Z,93.40
2022-08-24T07:14:26.940Z,93.20
2022-08-24T07:17:13.394Z,92.60
2022-08-24T07:20:00.170Z,92.60
2022-08-24T07:23:19.264Z,92.80
2022-08-24T07:26:20.943Z,93.10
2022-08-24T07:29:43.708Z,92.50
2022-08-24T07:32:23.563Z,92.50
2022-08-24T07:35:12.214Z,92.60
2022-08-24T07:37:59.435Z,92.70
2022-08-24T07:41:09.501Z,92.60
2022-08-24T07:43:55.036Z,92.70
2022-08-24T07:46:41.913Z,92.10
2022-08-24T07:49:36.953Z,92.20
2022-08-24T07:52:24.898Z,90.60
2022-08-24T07:55:12.170Z,90.50
2022-08-24T07:57:59.528Z,90.40
2022-08-24T08:00:47.870Z,89.80
2022-08-24T08:03:34.642Z,90.30
2022-08-24T08:06:20.517Z,89.90
2022-08-24T08:09:09.714Z,89.00
2022-08-24T08:11:56.085Z,89.40
2022-08-24T08:14:42.405Z,89.70
2022-08-24T08:17:28.460Z,89.70
2022-08-24T08:20:15.425Z,89.30
2022-08-24T08:23:24.415Z,89.00
2022-08-24T08:26:22.335Z,89.50
2022-08-24T08:29:32.264Z,88.00
2022-08-24T08:32:20.129Z,87.80
2022-08-24T08:35:09.229Z,88.90
2022-08-24T08:37:57.157Z,88.70
2022-08-24T08:41:04.748Z,88.70
2022-08-24T08:44:20.208Z,88.50
2022-08-24T08:47:30.658Z,88.70
2022-08-24T08:50:39.859Z,88.70
2022-08-24T08:53:54.326Z,89.10
2022-08-24T08:56:58.560Z,89.40
2022-08-24T09:00:10.036Z,89.00
2022-08-24T09:03:42.918Z,88.90
2022-08-24T09:07:35.501Z,89.20
2022-08-24T09:11:15.059Z,89.50
2022-08-24T09:14:17.359Z,88.80
2022-08-24T09:17:22.233Z,89.50
2022-08-24T09:20:21.808Z,88.70
2022-08-24T09:23:21.052Z,88.60
2022-08-24T09:26:38.462Z,88.80
2022-08-24T09:29:53.667Z,87.90
2022-08-24T09:32:58.692Z,87.00
2022-08-24T09:36:07.610Z,86.70
2022-08-24T09:39:07.553Z,86.90
2022-08-24T09:42:18.560Z,85.90
2022-08-24T09:45:25.324Z,85.40
2022-08-24T09:48:36.729Z,85.00
2022-08-24T09:52:15.681Z,84.80
2022-08-24T09:55:10.627Z,83.60
2022-08-24T09:58:00.856Z,83.40
2022-08-24T10:01:11.465Z,82.30
2022-08-24T10:04:31.627Z,83.00
2022-08-24T10:07:17.825Z,81.30
2022-08-24T10:10:33.870Z,81.70
2022-08-24T10:13:47.724Z,81.20
2022-08-24T10:16:39.649Z,80.40
2022-08-24T10:19:46.813Z,79.00
2022-08-24T10:22:50.645Z,78.50
2022-08-24T10:25:43.286Z,77.80
2022-08-24T10:28:39.904Z,77.00
2022-08-24T10:32:07.636Z,77.80
2022-08-24T10:35:02.073Z,78.20
2022-08-24T10:38:37.584Z,77.50
2022-08-24T10:41:48.754Z,76.30
2022-08-24T10:44:58.310Z,76.90
2022-08-24T10:48:24.958Z,75.40
2022-08-24T10:51:47.645Z,75.60
2022-08-24T10:54:35.315Z,74.80
2022-08-24T10:57:24.033Z,75.30
2022-08-24T11:00:23.233Z,74.70
2022-08-24T11:03:12.029Z,75.00
2022-08-24T11:05:58.245Z,73.20
2022-08-24T11:08:53.049Z,72.90
2022-08-24T11:11:42.621Z,72.70
2022-08-24T11:14:31.893Z,73.10
2022-08-24T11:17:23.561Z,71.60
2022-08-24T11:20:36.563Z,72.50
2022-08-24T11:23:32.349Z,73.70
2022-08-24T11:26:22.590Z,75.50
2022-08-24T11:29:08.418Z,74.50
2022-08-24T11:31:54.653Z,73.90
2022-08-24T11:34:46.855Z,74.30
2022-08-24T11:37:37.313Z,74.30
2022-08-24T11:40:33.897Z,75.10
2022-08-24T11:43:29.218Z,74.90
2022-08-24T11:46:40.507Z,74.10
2022-08-24T11:49:45.518Z,73.10
2022-08-24T11:52:34.382Z,74.10
2022-08-24T11:55:47.361Z,73.50
2022-08-24T11:58:55.222Z,73.00
2022-08-24T12:02:03.635Z,73.50
2022-08-24T12:05:18.470Z,73.60
2022-08-24T12:08:17.425Z,72.90
2022-08-24T12:11:12.235Z,72.40
2022-08-24T12:14:43.170Z,72.20
2022-08-24T12:17:51.156Z,73.80
2022-08-24T12:20:41.094Z,72.30
2022-08-24T12:23:40.800Z,72.20
2022-08-24T12:26:37.037Z,73.50
2022-08-24T12:29:36.159Z,73.70
2022-08-24T12:32:29.896Z,73.90
2022-08-24T12:35:23.913Z,73.40
2022-08-24T12:38:27.936Z,72.90
2022-08-24T12:41:29.289Z,73.10
2022-08-24T12:44:17.022Z,74.10
2022-08-24T12:47:03.111Z,73.80
2022-08-24T12:50:02.270Z,73.70
2022-08-24T12:52:57.577Z,74.70
2022-08-24T12:56:08.027Z,75.20
2022-08-24T12:59:12.312Z,74.10
2022-08-24T13:02:03.468Z,73.30
2022-08-24T13:04:49.438Z,73.60
2022-08-24T13:07:42.218Z,73.60
2022-08-24T13:10:40.258Z,72.60
2022-08-24T13:14:05.733Z,72.20
2022-08-24T13:16:57.515Z,72.30
2022-08-24T13:19:46.377Z,71.20
2022-08-24T13:22:47.497Z,72.10
2022-08-24T13:25:50.601Z,70.60
2022-08-24T13:28:44.214Z,71.00
2022-08-24T13:31:42.249Z,70.20
2022-08-24T13:34:44.709Z,70.70
2022-08-24T13:37:30.913Z,70.30
2022-08-24T13:40:27.746Z,70.40
2022-08-24T13:43:31.492Z,70.70
2022-08-24T13:46:41.891Z,71.20
2022-08-24T13:49:41.047Z,71.00
2022-08-24T13:52:39.630Z,71.30
2022-08-24T13:55:34.708Z,71.50
2022-08-24T13:58:23.636Z,71.70
2022-08-24T14:01:25.432Z,71.60
2022-08-24T14:04:21.047Z,71.20
2022-08-24T14:07:31.747Z,71.80
2022-08-24T14:10:33.169Z,72.00
2022-08-24T14:13:35.723Z,72.40
2022-08-24T14:17:19.582Z,71.40
2022-08-24T14:20:30.580Z,72.70
2022-08-24T14:23:44.317Z,72.10
2022-08-24T14:26:43.230Z,72.80
2022-08-24T14:29:33.068Z,73.20
2022-08-24T14:32:30.005Z,74.20
2022-08-24T14:35:23.153Z,74.30
2022-08-24T14:38:20.286Z,73.70
2022-08-24T14:41:26.042Z,73.00
2022-08-24T14:44:30.116Z,71.90
2022-08-24T14:47:51.115Z,72.30
2022-08-24T14:51:11.282Z,73.00
2022-08-24T14:54:09.740Z,73.80
2022-08-24T14:57:34.114Z,74.20
2022-08-24T15:00:44.776Z,73.70
2022-08-24T15:03:52.470Z,73.20
2022-08-24T15:06:50.010Z,74.70
2022-08-24T15:09:37.976Z,74.80
2022-08-24T15:12:51.077Z,74.30
2022-08-24T15:15:55.594Z,74.30
2022-08-24T15:18:54.213Z,73.30
2022-08-24T15:21:57.882Z,73.30
2022-08-24T15:24:53.068Z,72.70
2022-08-24T15:28:00.234Z,73.30
2022-08-24T15:30:55.909Z,73.60
2022-08-24T15:34:14.605Z,74.30
2022-08-24T15:37:01.594Z,74.60
2022-08-24T15:39:47.982Z,75.00
2022-08-24T15:42:36.947Z,74.90
2022-08-24T15:45:23.940Z,74.60
2022-08-24T15:48:13.606Z,74.00
2022-08-24T15:51:01.093Z,73.50
2022-08-24T15:53:47.810Z,73.40
2022-08-24T15:56:43.914Z,72.80
2022-08-24T16:00:44.847Z,72.90
2022-08-24T16:03:48.061Z,73.80
2022-08-24T16:06:33.938Z,75.30
2022-08-24T16:09:22.352Z,75.50
2022-08-24T16:12:16.552Z,75.80
2022-08-24T16:15:16.895Z,76.50
2022-08-24T16:18:03.177Z,76.80
2022-08-24T16:20:51.002Z,77.10
2022-08-24T16:23:37.065Z,76.80
2022-08-24T16:26:46.629Z,77.00
2022-08-24T16:29:39.085Z,76.20
2022-08-24T16:32:45.587Z,76.70
2022-08-24T16:35:38.751Z,76.50
2022-08-24T16:38:25.978Z,76.20
2022-08-24T16:41:12.483Z,76.40
2022-08-24T16:44:00.088Z,76.30
2022-08-24T16:46:48.180Z,76.60
2022-08-24T16:49:34.857Z,76.50
2022-08-24T16:52:21.153Z,76.80
2022-08-24T16:55:07.427Z,77.40
2022-08-24T16:57:53.528Z,77.10
2022-08-24T17:00:39.433Z,77.20
2022-08-24T17:03:25.559Z,77.50
2022-08-24T17:06:12.516Z,77.30
2022-08-24T17:08:58.974Z,76.90
2022-08-24T17:11:46.011Z,77.00
2022-08-24T17:14:31.913Z,76.80
2022-08-24T17:17:23.001Z,77.10
2022-08-24T17:20:11.119Z,77.30
2022-08-24T17:22:57.884Z,77.50
2022-08-24T17:25:44.803Z,77.70
2022-08-24T17:28:40.056Z,77.70
2022-08-24T17:31:26.427Z,78.00
2022-08-24T17:34:12.869Z,78.20
2022-08-24T17:36:59.837Z,78.70
2022-08-24T17:39:46.557Z,78.20
2022-08-24T17:42:51.313Z,78.30
2022-08-24T17:45:38.044Z,78.30
2022-08-24T17:48:26.557Z,78.60
2022-08-24T17:51:13.569Z,78.60
2022-08-24T17:54:00.019Z,78.80
2022-08-24T17:56:48.787Z,78.90
2022-08-24T17:59:35.885Z,79.10
2022-08-24T18:02:22.826Z,79.10
2022-08-24T18:05:12.243Z,79.90
2022-08-24T18:07:59.338Z,79.40
2022-08-24T18:10:45.521Z,79.70
2022-08-24T18:13:33.970Z,79.90
2022-08-24T18:16:22.185Z,80.10
2022-08-24T18:19:11.732Z,80.20
2022-08-24T18:21:57.788Z,80.50
2022-08-24T18:24:45.127Z,80.60
2022-08-24T18:27:33.478Z,80.90
2022-08-24T18:30:30.401Z,81.10
2022-08-24T18:33:17.509Z,81.40
2022-08-24T18:36:03.768Z,81.70
2022-08-24T18:38:49.914Z,82.00
2022-08-24T18:41:39.396Z,82.20
2022-08-24T18:44:31.468Z,82.50
2022-08-24T18:47:18.291Z,82.80
2022-08-24T18:50:07.444Z,83.00
2022-08-24T18:52:54.421Z,83.70
2022-08-24T18:55:42.843Z,83.70
2022-08-24T18:58:29.016Z,83.90
2022-08-24T19:01:15.588Z,84.20
2022-08-24T19:04:09.476Z,84.50
2022-08-24T19:06:58.221Z,84.60
2022-08-24T19:09:44.510Z,84.90
2022-08-24T19:12:33.941Z,85.10
2022-08-24T19:15:34.636Z,85.50
2022-08-24T19:18:26.722Z,85.90
2022-08-24T19:21:12.996Z,86.00
2022-08-24T19:24:00.599Z,86.40
2022-08-24T19:26:47.292Z,86.70
2022-08-24T19:30:02.109Z,86.70
2022-08-24T19:32:41.818Z,86.70
2022-08-24T19:35:28.069Z,87.50
2022-08-24T19:38:13.914Z,87.70
2022-08-24T19:41:00.797Z,87.70
2022-08-24T19:44:10.375Z,88.00
2022-08-24T19:46:57.371Z,87.90
2022-08-24T19:49:43.966Z,87.90
2022-08-24T19:52:32.461Z,88.00
2022-08-24T19:55:18.867Z,88.40
2022-08-24T19:58:08.662Z,88.70
2022-08-24T20:01:03.853Z,88.80
2022-08-24T20:03:51.362Z,89.00
2022-08-24T20:06:40.877Z,89.40
2022-08-24T20:09:28.780Z,89.50
2022-08-24T20:12:15.002Z,89.80
2022-08-24T20:15:01.208Z,90.00
2022-08-24T20:17:48.668Z,90.00
2022-08-24T20:20:34.730Z,90.00
2022-08-24T20:23:21.025Z,90.20
2022-08-24T20:26:11.291Z,90.30
2022-08-24T20:28:59.023Z,90.50
2022-08-24T20:31:46.784Z,90.50
2022-08-24T20:34:36.842Z,90.70
2022-08-24T20:37:26.995Z,90.70
2022-08-24T20:40:17.252Z,90.90
2022-08-24T20:43:03.810Z,91.00
2022-08-24T20:45:51.810Z,91.00
2022-08-24T20:48:43.000Z,91.10
2022-08-24T20:51:29.672Z,91.20
2022-08-24T20:54:15.841Z,91.40
2022-08-24T20:57:02.063Z,91.50
2022-08-24T20:59:48.349Z,91.60
2022-08-24T21:02:34.217Z,91.60
2022-08-24T21:05:21.473Z,91.80
2022-08-24T21:08:08.341Z,91.90
2022-08-24T21:10:55.045Z,91.90
2022-08-24T21:13:41.186Z,91.90
2022-08-24T21:16:28.128Z,92.00
2022-08-24T21:19:17.948Z,92.20
2022-08-24T21:22:04.410Z,92.20
2022-08-24T21:24:50.505Z,92.30
2022-08-24T21:27:39.241Z,92.40
2022-08-24T21:30:25.422Z,92.70
2022-08-24T21:33:29.920Z,92.90
2022-08-24T21:36:16.867Z,93.00
2022-08-24T21:39:08.793Z,93.10
2022-08-24T21:41:57.020Z,93.20
2022-08-24T21:44:43.471Z,93.30
2022-08-24T21:47:29.560Z,93.30
2022-08-24T21:50:16.893Z,93.50
2022-08-24T21:53:03.405Z,93.50
2022-08-24T21:55:52.822Z,93.80
2022-08-24T21:58:39.107Z,93.70
2022-08-24T22:01:25.142Z,93.70
2022-08-24T22:04:12.313Z,94.00
2022-08-24T22:06:59.297Z,94.10
2022-08-24T22:09:45.328Z,94.40
2022-08-24T22:12:31.520Z,94.50
2022-08-24T22:15:18.595Z,94.50
2022-08-24T22:18:09.589Z,94.60
2022-08-24T22:20:55.734Z,94.70
2022-08-24T22:23:42.018Z,94.90
2022-08-24T22:26:29.317Z,95.10
2022-08-24T22:29:15.273Z,95.30
2022-08-24T22:32:01.737Z,95.50
2022-08-24T22:34:47.720Z,95.40
2022-08-24T22:37:34.149Z,95.50
2022-08-24T22:40:20.444Z,95.60
2022-08-24T22:43:06.724Z,95.60
2022-08-24T22:45:52.636Z,95.80
2022-08-24T22:48:38.670Z,95.80
2022-08-24T22:51:24.722Z,95.90
2022-08-24T22:54:11.658Z,95.90
2022-08-24T22:56:57.838Z,96.10
2022-08-24T22:59:44.098Z,96.20
2022-08-24T23:02:30.475Z,96.30
2022-08-24T23:05:16.481Z,96.40
2022-08-24T23:08:02.665Z,96.50
2022-08-24T23:10:50.932Z,96.60
2022-08-24T23:13:39.773Z,96.60
2022-08-24T23:16:27.264Z,96.70
2022-08-24T23:19:32.260Z,97.00
2022-08-24T23:22:20.231Z,97.10
2022-08-24T23:25:09.642Z,97.10
2022-08-24T23:27:55.686Z,97.10
2022-08-24T23:30:41.572Z,97.20
2022-08-24T23:33:28.713Z,97.30
2022-08-24T23:36:21.530Z,97.40
2022-08-24T23:39:09.412Z,97.50
2022-08-24T23:41:55.684Z,97.60
2022-08-24T23:44:42.312Z,97.70
2022-08-24T23:47:28.586Z,97.80
2022-08-24T23:50:17.443Z,97.80
2022-08-24T23:53:03.844Z,98.00
2022-08-24T23:55:51.594Z,98.00
2022-08-24T23:58:40.830Z,98.10
